Airport ID:1G3
Update Time (UTC):27/01/2022 18:09
Wind Speed (Knots):8
Wind Direction (Magnetic):210
Temperature (°C):-5
Dew Point (°C):-15
Humidity (%):48
Altimeter (inHg):30.14
Density Altitude (Feet):
Visibility:10+
Clouds (Hundreds of feet):***
Present Weather:
METAR:METAR 1G3 271805Z AUTO 20010G15KT 10SM M05/M15 A3015 RMK A01

The data displayed is for advisory purposes only and is not to be used for flight planning or operations.